sensor_id;sensor_type;location;lat;lon;timestamp;P1;durP1;ratioP1;P2;durP2;ratioP2
6973;SDS011;3527;52.376;8.990;2022-12-18T00:02:00;34.77;;;18.73;;
6973;SDS011;3527;52.376;8.990;2022-12-18T00:04:47;34.33;;;17.57;;
6973;SDS011;3527;52.376;8.990;2022-12-18T00:07:35;35.17;;;17.33;;
6973;SDS011;3527;52.376;8.990;2022-12-18T00:10:22;36.27;;;17.63;;
6973;SDS011;3527;52.376;8.990;2022-12-18T00:13:09;35.17;;;17.40;;
6973;SDS011;3527;52.376;8.990;2022-12-18T00:16:00;33.63;;;16.17;;
6973;SDS011;3527;52.376;8.990;2022-12-18T00:18:53;35.50;;;18.03;;
6973;SDS011;3527;52.376;8.990;2022-12-18T00:21:42;34.03;;;17.23;;
6973;SDS011;3527;52.376;8.990;2022-12-18T00:24:30;35.00;;;16.67;;
6973;SDS011;3527;52.376;8.990;2022-12-18T00:27:17;32.97;;;15.67;;
6973;SDS011;3527;52.376;8.990;2022-12-18T00:30:04;35.57;;;17.07;;
6973;SDS011;3527;52.376;8.990;2022-12-18T00:32:51;36.60;;;16.03;;
6973;SDS011;3527;52.376;8.990;2022-12-18T00:35:38;36.00;;;16.87;;
6973;SDS011;3527;52.376;8.990;2022-12-18T00:38:26;35.97;;;16.13;;
6973;SDS011;3527;52.376;8.990;2022-12-18T00:41:13;32.97;;;16.70;;
6973;SDS011;3527;52.376;8.990;2022-12-18T00:44:21;31.40;;;16.50;;
6973;SDS011;3527;52.376;8.990;2022-12-18T00:47:08;30.33;;;15.67;;
6973;SDS011;3527;52.376;8.990;2022-12-18T00:49:55;31.30;;;15.43;;
6973;SDS011;3527;52.376;8.990;2022-12-18T00:52:42;32.37;;;14.27;;
6973;SDS011;3527;52.376;8.990;2022-12-18T00:55:29;30.67;;;15.33;;
6973;SDS011;3527;52.376;8.990;2022-12-18T00:58:16;28.63;;;14.13;;
6973;SDS011;3527;52.376;8.990;2022-12-18T01:01:04;29.23;;;14.53;;
6973;SDS011;3527;52.376;8.990;2022-12-18T01:03:52;25.37;;;13.30;;
6973;SDS011;3527;52.376;8.990;2022-12-18T01:06:39;25.20;;;13.20;;
6973;SDS011;3527;52.376;8.990;2022-12-18T01:09:26;32.60;;;13.57;;
6973;SDS011;3527;52.376;8.990;2022-12-18T01:12:13;30.30;;;13.37;;
6973;SDS011;3527;52.376;8.990;2022-12-18T01:15:00;27.07;;;13.77;;
6973;SDS011;3527;52.376;8.990;2022-12-18T01:17:47;31.90;;;13.87;;
6973;SDS011;3527;52.376;8.990;2022-12-18T01:20:34;30.87;;;14.50;;
6973;SDS011;3527;52.376;8.990;2022-12-18T01:23:21;34.20;;;14.70;;
6973;SDS011;3527;52.376;8.990;2022-12-18T01:26:10;31.37;;;14.73;;
6973;SDS011;3527;52.376;8.990;2022-12-18T01:28:59;23.83;;;13.33;;
6973;SDS011;3527;52.376;8.990;2022-12-18T01:31:45;28.57;;;13.67;;
6973;SDS011;3527;52.376;8.990;2022-12-18T01:34:32;29.20;;;13.37;;
6973;SDS011;3527;52.376;8.990;2022-12-18T01:37:21;32.63;;;14.63;;
6973;SDS011;3527;52.376;8.990;2022-12-18T01:40:08;27.33;;;12.80;;
6973;SDS011;3527;52.376;8.990;2022-12-18T01:42:56;26.53;;;13.50;;
6973;SDS011;3527;52.376;8.990;2022-12-18T01:45:43;27.13;;;13.80;;
6973;SDS011;3527;52.376;8.990;2022-12-18T01:48:30;28.93;;;14.33;;
6973;SDS011;3527;52.376;8.990;2022-12-18T01:51:17;26.80;;;13.87;;
6973;SDS011;3527;52.376;8.990;2022-12-18T01:54:04;30.80;;;13.13;;
6973;SDS011;3527;52.376;8.990;2022-12-18T01:56:51;27.77;;;12.60;;
6973;SDS011;3527;52.376;8.990;2022-12-18T01:59:38;31.77;;;14.23;;
6973;SDS011;3527;52.376;8.990;2022-12-18T02:02:29;23.40;;;12.63;;
6973;SDS011;3527;52.376;8.990;2022-12-18T02:05:18;28.90;;;13.97;;
6973;SDS011;3527;52.376;8.990;2022-12-18T02:20:48;26.80;;;12.90;;
6973;SDS011;3527;52.376;8.990;2022-12-18T02:27:10;27.13;;;12.63;;
6973;SDS011;3527;52.376;8.990;2022-12-18T02:29:59;24.77;;;12.20;;
6973;SDS011;3527;52.376;8.990;2022-12-18T02:32:51;26.37;;;12.67;;
6973;SDS011;3527;52.376;8.990;2022-12-18T02:35:41;23.30;;;11.27;;
6973;SDS011;3527;52.376;8.990;2022-12-18T02:38:30;24.40;;;11.90;;
6973;SDS011;3527;52.376;8.990;2022-12-18T02:41:20;24.67;;;12.13;;
6973;SDS011;3527;52.376;8.990;2022-12-18T02:44:10;24.47;;;12.37;;
6973;SDS011;3527;52.376;8.990;2022-12-18T02:46:58;21.87;;;11.20;;
6973;SDS011;3527;52.376;8.990;2022-12-18T03:01:51;23.27;;;11.20;;
6973;SDS011;3527;52.376;8.990;2022-12-18T03:04:47;22.90;;;10.73;;
6973;SDS011;3527;52.376;8.990;2022-12-18T03:07:52;26.20;;;12.23;;
6973;SDS011;3527;52.376;8.990;2022-12-18T03:10:49;18.23;;;9.50;;
6973;SDS011;3527;52.376;8.990;2022-12-18T03:16:32;21.07;;;11.23;;
6973;SDS011;3527;52.376;8.990;2022-12-18T03:19:22;23.13;;;10.73;;
6973;SDS011;3527;52.376;8.990;2022-12-18T03:22:12;22.87;;;11.07;;
6973;SDS011;3527;52.376;8.990;2022-12-18T03:25:00;21.17;;;10.60;;
6973;SDS011;3527;52.376;8.990;2022-12-18T03:27:53;20.40;;;10.03;;
6973;SDS011;3527;52.376;8.990;2022-12-18T03:30:45;18.97;;;10.13;;
6973;SDS011;3527;52.376;8.990;2022-12-18T03:36:30;18.13;;;9.20;;
6973;SDS011;3527;52.376;8.990;2022-12-18T03:39:17;23.00;;;10.30;;
6973;SDS011;3527;52.376;8.990;2022-12-18T03:42:09;19.57;;;9.60;;
6973;SDS011;3527;52.376;8.990;2022-12-18T03:48:08;22.23;;;10.50;;
6973;SDS011;3527;52.376;8.990;2022-12-18T03:51:02;26.60;;;9.67;;
6973;SDS011;3527;52.376;8.990;2022-12-18T03:54:00;16.63;;;9.27;;
6973;SDS011;3527;52.376;8.990;2022-12-18T03:56:52;19.60;;;9.60;;
6973;SDS011;3527;52.376;8.990;2022-12-18T03:59:55;20.50;;;9.87;;
6973;SDS011;3527;52.376;8.990;2022-12-18T04:02:50;16.70;;;8.83;;
6973;SDS011;3527;52.376;8.990;2022-12-18T04:05:40;26.73;;;10.60;;
6973;SDS011;3527;52.376;8.990;2022-12-18T04:08:29;18.23;;;9.27;;
6973;SDS011;3527;52.376;8.990;2022-12-18T04:11:16;16.97;;;8.87;;
6973;SDS011;3527;52.376;8.990;2022-12-18T04:14:03;15.70;;;8.73;;
6973;SDS011;3527;52.376;8.990;2022-12-18T04:16:53;16.90;;;9.23;;
6973;SDS011;3527;52.376;8.990;2022-12-18T04:19:40;17.67;;;9.40;;
6973;SDS011;3527;52.376;8.990;2022-12-18T04:22:27;16.30;;;9.27;;
6973;SDS011;3527;52.376;8.990;2022-12-18T04:25:14;18.37;;;9.67;;
6973;SDS011;3527;52.376;8.990;2022-12-18T04:28:01;18.07;;;9.57;;
6973;SDS011;3527;52.376;8.990;2022-12-18T04:30:48;22.53;;;10.10;;
6973;SDS011;3527;52.376;8.990;2022-12-18T04:33:35;19.00;;;9.57;;
6973;SDS011;3527;52.376;8.990;2022-12-18T04:36:22;17.73;;;10.27;;
6973;SDS011;3527;52.376;8.990;2022-12-18T04:39:09;19.33;;;10.23;;
6973;SDS011;3527;52.376;8.990;2022-12-18T04:41:56;16.50;;;9.00;;
6973;SDS011;3527;52.376;8.990;2022-12-18T04:44:43;17.10;;;9.70;;
6973;SDS011;3527;52.376;8.990;2022-12-18T04:47:31;17.63;;;9.93;;
6973;SDS011;3527;52.376;8.990;2022-12-18T04:50:18;21.10;;;10.20;;
6973;SDS011;3527;52.376;8.990;2022-12-18T04:53:05;17.90;;;9.53;;
6973;SDS011;3527;52.376;8.990;2022-12-18T04:56:01;17.80;;;10.70;;
6973;SDS011;3527;52.376;8.990;2022-12-18T04:58:50;19.57;;;10.23;;
6973;SDS011;3527;52.376;8.990;2022-12-18T05:01:37;17.77;;;9.53;;
6973;SDS011;3527;52.376;8.990;2022-12-18T05:04:24;19.80;;;10.70;;
6973;SDS011;3527;52.376;8.990;2022-12-18T05:07:11;16.97;;;9.20;;
6973;SDS011;3527;52.376;8.990;2022-12-18T05:09:58;22.03;;;11.07;;
6973;SDS011;3527;52.376;8.990;2022-12-18T05:12:45;20.50;;;10.70;;
6973;SDS011;3527;52.376;8.990;2022-12-18T05:15:51;17.17;;;9.53;;
6973;SDS011;3527;52.376;8.990;2022-12-18T05:18:39;20.63;;;11.57;;
6973;SDS011;3527;52.376;8.990;2022-12-18T05:21:26;18.17;;;9.53;;
6973;SDS011;3527;52.376;8.990;2022-12-18T05:24:13;18.00;;;10.10;;
6973;SDS011;3527;52.376;8.990;2022-12-18T05:27:01;20.90;;;10.33;;
6973;SDS011;3527;52.376;8.990;2022-12-18T05:29:48;16.50;;;9.53;;
6973;SDS011;3527;52.376;8.990;2022-12-18T05:32:35;19.97;;;10.80;;
6973;SDS011;3527;52.376;8.990;2022-12-18T05:35:22;21.23;;;11.27;;
6973;SDS011;3527;52.376;8.990;2022-12-18T05:38:09;17.57;;;10.07;;
6973;SDS011;3527;52.376;8.990;2022-12-18T05:40:56;19.23;;;10.00;;
6973;SDS011;3527;52.376;8.990;2022-12-18T05:43:44;19.33;;;10.00;;
6973;SDS011;3527;52.376;8.990;2022-12-18T05:46:31;20.73;;;10.40;;
6973;SDS011;3527;52.376;8.990;2022-12-18T05:49:18;21.40;;;10.27;;
6973;SDS011;3527;52.376;8.990;2022-12-18T05:52:05;27.40;;;10.47;;
6973;SDS011;3527;52.376;8.990;2022-12-18T05:54:52;20.43;;;10.87;;
6973;SDS011;3527;52.376;8.990;2022-12-18T05:57:39;18.27;;;9.90;;
6973;SDS011;3527;52.376;8.990;2022-12-18T06:00:26;21.43;;;9.67;;
6973;SDS011;3527;52.376;8.990;2022-12-18T06:03:13;20.83;;;10.07;;
6973;SDS011;3527;52.376;8.990;2022-12-18T06:06:00;20.30;;;10.70;;
6973;SDS011;3527;52.376;8.990;2022-12-18T06:08:48;20.13;;;9.80;;
6973;SDS011;3527;52.376;8.990;2022-12-18T06:11:36;19.73;;;10.63;;
6973;SDS011;3527;52.376;8.990;2022-12-18T06:14:24;18.90;;;10.80;;
6973;SDS011;3527;52.376;8.990;2022-12-18T06:17:11;23.47;;;10.90;;
6973;SDS011;3527;52.376;8.990;2022-12-18T06:19:58;18.03;;;9.53;;
6973;SDS011;3527;52.376;8.990;2022-12-18T06:22:45;23.33;;;10.30;;
6973;SDS011;3527;52.376;8.990;2022-12-18T06:25:32;21.60;;;10.07;;
6973;SDS011;3527;52.376;8.990;2022-12-18T06:28:19;24.13;;;10.17;;
6973;SDS011;3527;52.376;8.990;2022-12-18T06:31:06;18.90;;;9.50;;
6973;SDS011;3527;52.376;8.990;2022-12-18T06:33:54;18.50;;;9.93;;
6973;SDS011;3527;52.376;8.990;2022-12-18T06:36:41;19.33;;;10.10;;
6973;SDS011;3527;52.376;8.990;2022-12-18T06:39:28;20.70;;;9.30;;
6973;SDS011;3527;52.376;8.990;2022-12-18T06:42:15;17.90;;;9.70;;
6973;SDS011;3527;52.376;8.990;2022-12-18T06:45:02;16.93;;;10.10;;
6973;SDS011;3527;52.376;8.990;2022-12-18T06:47:49;19.43;;;9.47;;
6973;SDS011;3527;52.376;8.990;2022-12-18T06:50:36;15.47;;;9.17;;
6973;SDS011;3527;52.376;8.990;2022-12-18T06:53:23;21.07;;;9.67;;
6973;SDS011;3527;52.376;8.990;2022-12-18T06:56:10;19.70;;;9.10;;
6973;SDS011;3527;52.376;8.990;2022-12-18T06:58:57;20.63;;;9.87;;
6973;SDS011;3527;52.376;8.990;2022-12-18T07:01:44;19.40;;;9.53;;
6973;SDS011;3527;52.376;8.990;2022-12-18T07:04:31;21.83;;;9.90;;
6973;SDS011;3527;52.376;8.990;2022-12-18T07:07:18;22.37;;;9.37;;
6973;SDS011;3527;52.376;8.990;2022-12-18T07:10:06;19.23;;;9.83;;
6973;SDS011;3527;52.376;8.990;2022-12-18T07:12:53;18.67;;;9.57;;
6973;SDS011;3527;52.376;8.990;2022-12-18T07:15:40;16.30;;;9.03;;
6973;SDS011;3527;52.376;8.990;2022-12-18T07:18:27;15.90;;;8.83;;
6973;SDS011;3527;52.376;8.990;2022-12-18T07:21:15;19.27;;;9.23;;
6973;SDS011;3527;52.376;8.990;2022-12-18T07:24:04;20.50;;;10.07;;
6973;SDS011;3527;52.376;8.990;2022-12-18T07:26:52;16.57;;;8.50;;
6973;SDS011;3527;52.376;8.990;2022-12-18T07:29:39;18.80;;;9.50;;
6973;SDS011;3527;52.376;8.990;2022-12-18T07:32:26;20.83;;;9.30;;
6973;SDS011;3527;52.376;8.990;2022-12-18T07:35:13;20.00;;;9.37;;
6973;SDS011;3527;52.376;8.990;2022-12-18T07:38:00;20.47;;;10.10;;
6973;SDS011;3527;52.376;8.990;2022-12-18T07:40:47;18.47;;;9.10;;
6973;SDS011;3527;52.376;8.990;2022-12-18T07:43:34;20.97;;;9.80;;
6973;SDS011;3527;52.376;8.990;2022-12-18T07:46:22;19.00;;;9.77;;
6973;SDS011;3527;52.376;8.990;2022-12-18T07:49:09;23.13;;;10.97;;
6973;SDS011;3527;52.376;8.990;2022-12-18T07:51:56;20.97;;;9.67;;
6973;SDS011;3527;52.376;8.990;2022-12-18T07:54:44;24.13;;;10.73;;
6973;SDS011;3527;52.376;8.990;2022-12-18T07:57:31;18.50;;;9.87;;
6973;SDS011;3527;52.376;8.990;2022-12-18T08:00:38;19.93;;;9.90;;
6973;SDS011;3527;52.376;8.990;2022-12-18T08:03:25;20.43;;;10.27;;
6973;SDS011;3527;52.376;8.990;2022-12-18T08:06:12;21.70;;;10.10;;
6973;SDS011;3527;52.376;8.990;2022-12-18T08:08:59;20.23;;;9.23;;
6973;SDS011;3527;52.376;8.990;2022-12-18T08:11:46;21.60;;;10.00;;
6973;SDS011;3527;52.376;8.990;2022-12-18T08:14:33;19.30;;;9.10;;
6973;SDS011;3527;52.376;8.990;2022-12-18T08:17:20;24.67;;;10.33;;
6973;SDS011;3527;52.376;8.990;2022-12-18T08:20:07;19.47;;;9.63;;
6973;SDS011;3527;52.376;8.990;2022-12-18T08:22:54;17.43;;;9.43;;
6973;SDS011;3527;52.376;8.990;2022-12-18T08:25:41;21.40;;;9.37;;
6973;SDS011;3527;52.376;8.990;2022-12-18T08:28:28;17.33;;;9.97;;
6973;SDS011;3527;52.376;8.990;2022-12-18T08:31:16;18.53;;;10.37;;
6973;SDS011;3527;52.376;8.990;2022-12-18T08:34:03;22.17;;;10.30;;
6973;SDS011;3527;52.376;8.990;2022-12-18T08:36:52;21.00;;;11.50;;
6973;SDS011;3527;52.376;8.990;2022-12-18T08:39:39;26.00;;;12.13;;
6973;SDS011;3527;52.376;8.990;2022-12-18T08:42:25;26.70;;;14.33;;
6973;SDS011;3527;52.376;8.990;2022-12-18T08:45:31;28.83;;;14.20;;
6973;SDS011;3527;52.376;8.990;2022-12-18T08:48:18;29.17;;;14.63;;
6973;SDS011;3527;52.376;8.990;2022-12-18T08:51:07;23.50;;;12.40;;
6973;SDS011;3527;52.376;8.990;2022-12-18T08:53:56;22.53;;;12.27;;
6973;SDS011;3527;52.376;8.990;2022-12-18T08:56:43;23.37;;;12.73;;
6973;SDS011;3527;52.376;8.990;2022-12-18T08:59:30;21.37;;;11.23;;
6973;SDS011;3527;52.376;8.990;2022-12-18T09:02:17;22.87;;;11.73;;
6973;SDS011;3527;52.376;8.990;2022-12-18T09:05:04;24.27;;;12.03;;
6973;SDS011;3527;52.376;8.990;2022-12-18T09:07:51;20.93;;;12.93;;
6973;SDS011;3527;52.376;8.990;2022-12-18T09:10:42;25.30;;;13.67;;
6973;SDS011;3527;52.376;8.990;2022-12-18T09:13:33;26.70;;;13.90;;
6973;SDS011;3527;52.376;8.990;2022-12-18T09:16:20;24.90;;;12.57;;
6973;SDS011;3527;52.376;8.990;2022-12-18T09:19:17;22.67;;;10.13;;
6973;SDS011;3527;52.376;8.990;2022-12-18T09:22:03;19.90;;;9.27;;
6973;SDS011;3527;52.376;8.990;2022-12-18T09:24:50;19.83;;;8.73;;
6973;SDS011;3527;52.376;8.990;2022-12-18T09:27:37;20.63;;;9.27;;
6973;SDS011;3527;52.376;8.990;2022-12-18T09:30:26;14.97;;;7.70;;
6973;SDS011;3527;52.376;8.990;2022-12-18T09:33:13;16.37;;;9.30;;
6973;SDS011;3527;52.376;8.990;2022-12-18T09:36:01;12.40;;;7.70;;
6973;SDS011;3527;52.376;8.990;2022-12-18T09:38:49;17.63;;;8.10;;
6973;SDS011;3527;52.376;8.990;2022-12-18T09:44:41;14.17;;;7.97;;
6973;SDS011;3527;52.376;8.990;2022-12-18T09:47:34;16.00;;;8.30;;
6973;SDS011;3527;52.376;8.990;2022-12-18T09:50:26;12.70;;;6.97;;
6973;SDS011;3527;52.376;8.990;2022-12-18T09:53:19;12.93;;;6.30;;
6973;SDS011;3527;52.376;8.990;2022-12-18T09:56:12;13.40;;;7.47;;
6973;SDS011;3527;52.376;8.990;2022-12-18T09:59:04;12.90;;;6.70;;
6973;SDS011;3527;52.376;8.990;2022-12-18T10:01:52;11.03;;;5.77;;
6973;SDS011;3527;52.376;8.990;2022-12-18T10:04:39;8.70;;;5.67;;
6973;SDS011;3527;52.376;8.990;2022-12-18T10:07:33;12.13;;;6.87;;
6973;SDS011;3527;52.376;8.990;2022-12-18T10:14:00;8.10;;;5.17;;
6973;SDS011;3527;52.376;8.990;2022-12-18T10:19:34;7.20;;;5.17;;
6973;SDS011;3527;52.376;8.990;2022-12-18T10:25:22;6.60;;;4.60;;
6973;SDS011;3527;52.376;8.990;2022-12-18T10:28:18;7.07;;;4.53;;
6973;SDS011;3527;52.376;8.990;2022-12-18T10:31:16;8.87;;;5.23;;
6973;SDS011;3527;52.376;8.990;2022-12-18T10:34:11;7.27;;;4.60;;
6973;SDS011;3527;52.376;8.990;2022-12-18T10:36:59;6.40;;;4.40;;
6973;SDS011;3527;52.376;8.990;2022-12-18T10:40:04;7.00;;;4.83;;
6973;SDS011;3527;52.376;8.990;2022-12-18T10:43:11;8.90;;;5.47;;
6973;SDS011;3527;52.376;8.990;2022-12-18T10:48:54;8.83;;;4.73;;
6973;SDS011;3527;52.376;8.990;2022-12-18T10:51:42;7.80;;;4.33;;
6973;SDS011;3527;52.376;8.990;2022-12-18T10:54:29;6.77;;;4.53;;
6973;SDS011;3527;52.376;8.990;2022-12-18T10:57:29;7.23;;;4.30;;
6973;SDS011;3527;52.376;8.990;2022-12-18T11:03:28;11.60;;;4.70;;
6973;SDS011;3527;52.376;8.990;2022-12-18T11:06:23;6.87;;;4.40;;
6973;SDS011;3527;52.376;8.990;2022-12-18T11:09:21;10.43;;;4.33;;
6973;SDS011;3527;52.376;8.990;2022-12-18T11:14:56;6.07;;;3.87;;
6973;SDS011;3527;52.376;8.990;2022-12-18T11:17:44;6.17;;;4.03;;
6973;SDS011;3527;52.376;8.990;2022-12-18T11:20:36;6.57;;;3.77;;
6973;SDS011;3527;52.376;8.990;2022-12-18T11:23:25;7.33;;;4.47;;
6973;SDS011;3527;52.376;8.990;2022-12-18T11:26:13;6.97;;;3.83;;
6973;SDS011;3527;52.376;8.990;2022-12-18T11:29:10;6.47;;;3.97;;
6973;SDS011;3527;52.376;8.990;2022-12-18T11:35:10;6.73;;;4.00;;
6973;SDS011;3527;52.376;8.990;2022-12-18T11:38:10;7.47;;;3.53;;
6973;SDS011;3527;52.376;8.990;2022-12-18T11:48:14;8.30;;;4.87;;
6973;SDS011;3527;52.376;8.990;2022-12-18T11:51:05;7.27;;;4.60;;
6973;SDS011;3527;52.376;8.990;2022-12-18T11:54:08;7.67;;;4.50;;
6973;SDS011;3527;52.376;8.990;2022-12-18T11:57:06;7.17;;;4.37;;
6973;SDS011;3527;52.376;8.990;2022-12-18T12:03:14;8.53;;;4.77;;
6973;SDS011;3527;52.376;8.990;2022-12-18T12:06:17;6.10;;;4.60;;
6973;SDS011;3527;52.376;8.990;2022-12-18T12:12:36;6.87;;;4.40;;
6973;SDS011;3527;52.376;8.990;2022-12-18T12:24:36;6.57;;;4.30;;
6973;SDS011;3527;52.376;8.990;2022-12-18T12:31:02;7.90;;;4.80;;
6973;SDS011;3527;52.376;8.990;2022-12-18T12:39:54;10.87;;;6.57;;
6973;SDS011;3527;52.376;8.990;2022-12-18T12:42:44;10.50;;;5.90;;
6973;SDS011;3527;52.376;8.990;2022-12-18T12:45:57;9.47;;;6.20;;
6973;SDS011;3527;52.376;8.990;2022-12-18T12:48:50;10.27;;;6.40;;
6973;SDS011;3527;52.376;8.990;2022-12-18T12:51:45;10.90;;;6.83;;
6973;SDS011;3527;52.376;8.990;2022-12-18T12:54:36;9.40;;;6.20;;
6973;SDS011;3527;52.376;8.990;2022-12-18T12:57:31;10.20;;;6.27;;
6973;SDS011;3527;52.376;8.990;2022-12-18T13:00:23;10.63;;;7.37;;
6973;SDS011;3527;52.376;8.990;2022-12-18T13:09:32;9.90;;;6.30;;
6973;SDS011;3527;52.376;8.990;2022-12-18T13:12:23;9.37;;;6.57;;
6973;SDS011;3527;52.376;8.990;2022-12-18T13:15:31;9.80;;;6.63;;
6973;SDS011;3527;52.376;8.990;2022-12-18T13:18:37;11.93;;;6.70;;
6973;SDS011;3527;52.376;8.990;2022-12-18T13:21:30;10.27;;;6.23;;
6973;SDS011;3527;52.376;8.990;2022-12-18T13:24:24;11.20;;;6.67;;
6973;SDS011;3527;52.376;8.990;2022-12-18T13:33:30;11.50;;;6.50;;
6973;SDS011;3527;52.376;8.990;2022-12-18T13:36:44;8.77;;;6.30;;
6973;SDS011;3527;52.376;8.990;2022-12-18T13:39:33;12.03;;;6.27;;
6973;SDS011;3527;52.376;8.990;2022-12-18T13:42:34;9.83;;;6.77;;
6973;SDS011;3527;52.376;8.990;2022-12-18T13:51:59;8.50;;;6.07;;
6973;SDS011;3527;52.376;8.990;2022-12-18T13:54:59;9.13;;;6.27;;
6973;SDS011;3527;52.376;8.990;2022-12-18T13:57:48;12.17;;;6.93;;
6973;SDS011;3527;52.376;8.990;2022-12-18T14:00:40;15.13;;;7.13;;
6973;SDS011;3527;52.376;8.990;2022-12-18T14:03:29;11.50;;;7.13;;
6973;SDS011;3527;52.376;8.990;2022-12-18T14:06:17;10.80;;;6.80;;
6973;SDS011;3527;52.376;8.990;2022-12-18T14:09:04;11.57;;;6.27;;
6973;SDS011;3527;52.376;8.990;2022-12-18T14:11:55;10.60;;;6.47;;
6973;SDS011;3527;52.376;8.990;2022-12-18T14:15:01;10.23;;;6.53;;
6973;SDS011;3527;52.376;8.990;2022-12-18T14:17:50;12.90;;;6.97;;
6973;SDS011;3527;52.376;8.990;2022-12-18T14:20:39;11.43;;;6.50;;
6973;SDS011;3527;52.376;8.990;2022-12-18T14:23:39;7.87;;;5.80;;
6973;SDS011;3527;52.376;8.990;2022-12-18T14:26:29;10.63;;;6.20;;
6973;SDS011;3527;52.376;8.990;2022-12-18T14:29:22;13.20;;;6.13;;
6973;SDS011;3527;52.376;8.990;2022-12-18T14:32:15;11.83;;;7.03;;
6973;SDS011;3527;52.376;8.990;2022-12-18T14:35:12;10.10;;;5.70;;
6973;SDS011;3527;52.376;8.990;2022-12-18T14:41:13;10.83;;;6.30;;
6973;SDS011;3527;52.376;8.990;2022-12-18T14:44:05;9.20;;;6.10;;
6973;SDS011;3527;52.376;8.990;2022-12-18T14:46:53;9.20;;;6.30;;
6973;SDS011;3527;52.376;8.990;2022-12-18T14:49:40;9.53;;;6.57;;
6973;SDS011;3527;52.376;8.990;2022-12-18T14:52:29;11.23;;;6.03;;
6973;SDS011;3527;52.376;8.990;2022-12-18T14:55:18;10.33;;;5.90;;
6973;SDS011;3527;52.376;8.990;2022-12-18T14:58:10;9.17;;;5.80;;
6973;SDS011;3527;52.376;8.990;2022-12-18T15:01:02;10.60;;;5.83;;
6973;SDS011;3527;52.376;8.990;2022-12-18T15:03:50;12.00;;;6.47;;
6973;SDS011;3527;52.376;8.990;2022-12-18T15:06:38;11.63;;;6.60;;
6973;SDS011;3527;52.376;8.990;2022-12-18T15:09:28;11.13;;;6.30;;
6973;SDS011;3527;52.376;8.990;2022-12-18T15:12:26;10.57;;;6.03;;
6973;SDS011;3527;52.376;8.990;2022-12-18T15:18:21;13.47;;;6.77;;
6973;SDS011;3527;52.376;8.990;2022-12-18T15:21:19;9.77;;;6.83;;
6973;SDS011;3527;52.376;8.990;2022-12-18T15:24:13;11.20;;;6.87;;
6973;SDS011;3527;52.376;8.990;2022-12-18T15:27:04;11.60;;;6.83;;
6973;SDS011;3527;52.376;8.990;2022-12-18T15:33:16;11.23;;;6.27;;
6973;SDS011;3527;52.376;8.990;2022-12-18T15:36:05;10.50;;;6.50;;
6973;SDS011;3527;52.376;8.990;2022-12-18T15:38:56;9.17;;;6.10;;
6973;SDS011;3527;52.376;8.990;2022-12-18T15:41:52;11.77;;;6.83;;
6973;SDS011;3527;52.376;8.990;2022-12-18T15:44:57;10.70;;;6.60;;
6973;SDS011;3527;52.376;8.990;2022-12-18T15:47:44;12.00;;;7.07;;
6973;SDS011;3527;52.376;8.990;2022-12-18T15:50:31;11.43;;;7.10;;
6973;SDS011;3527;52.376;8.990;2022-12-18T15:53:18;13.10;;;7.00;;
6973;SDS011;3527;52.376;8.990;2022-12-18T15:56:09;10.80;;;6.40;;
6973;SDS011;3527;52.376;8.990;2022-12-18T15:59:17;11.27;;;7.13;;
6973;SDS011;3527;52.376;8.990;2022-12-18T16:02:07;11.47;;;7.07;;
6973;SDS011;3527;52.376;8.990;2022-12-18T16:05:05;11.97;;;7.23;;
6973;SDS011;3527;52.376;8.990;2022-12-18T16:08:01;10.70;;;5.97;;
6973;SDS011;3527;52.376;8.990;2022-12-18T16:10:48;10.53;;;6.03;;
6973;SDS011;3527;52.376;8.990;2022-12-18T16:13:35;10.70;;;6.00;;
6973;SDS011;3527;52.376;8.990;2022-12-18T16:16:22;10.33;;;6.03;;
6973;SDS011;3527;52.376;8.990;2022-12-18T16:19:09;8.60;;;5.60;;
6973;SDS011;3527;52.376;8.990;2022-12-18T16:21:57;13.67;;;6.77;;
6973;SDS011;3527;52.376;8.990;2022-12-18T16:24:45;11.73;;;7.23;;
6973;SDS011;3527;52.376;8.990;2022-12-18T16:27:31;11.50;;;6.23;;
6973;SDS011;3527;52.376;8.990;2022-12-18T16:30:20;9.20;;;5.57;;
6973;SDS011;3527;52.376;8.990;2022-12-18T16:33:09;8.90;;;5.43;;
6973;SDS011;3527;52.376;8.990;2022-12-18T16:35:57;10.83;;;6.77;;
6973;SDS011;3527;52.376;8.990;2022-12-18T16:38:44;11.40;;;6.33;;
6973;SDS011;3527;52.376;8.990;2022-12-18T16:41:31;9.43;;;5.93;;
6973;SDS011;3527;52.376;8.990;2022-12-18T16:44:18;13.33;;;5.20;;
6973;SDS011;3527;52.376;8.990;2022-12-18T16:47:06;8.10;;;5.10;;
6973;SDS011;3527;52.376;8.990;2022-12-18T16:49:55;8.10;;;5.03;;
6973;SDS011;3527;52.376;8.990;2022-12-18T16:52:42;7.83;;;4.77;;
6973;SDS011;3527;52.376;8.990;2022-12-18T16:55:29;8.83;;;5.20;;
6973;SDS011;3527;52.376;8.990;2022-12-18T16:58:16;8.03;;;4.80;;
6973;SDS011;3527;52.376;8.990;2022-12-18T17:01:07;8.10;;;5.00;;
6973;SDS011;3527;52.376;8.990;2022-12-18T17:03:56;7.63;;;4.27;;
6973;SDS011;3527;52.376;8.990;2022-12-18T17:06:45;8.53;;;5.37;;
6973;SDS011;3527;52.376;8.990;2022-12-18T17:09:37;10.30;;;4.83;;
6973;SDS011;3527;52.376;8.990;2022-12-18T17:12:24;9.70;;;4.83;;
6973;SDS011;3527;52.376;8.990;2022-12-18T17:15:12;8.23;;;4.47;;
6973;SDS011;3527;52.376;8.990;2022-12-18T17:17:59;7.67;;;5.20;;
6973;SDS011;3527;52.376;8.990;2022-12-18T17:20:46;9.27;;;5.27;;
6973;SDS011;3527;52.376;8.990;2022-12-18T17:23:33;9.50;;;4.83;;
6973;SDS011;3527;52.376;8.990;2022-12-18T17:26:20;9.00;;;5.17;;
6973;SDS011;3527;52.376;8.990;2022-12-18T17:29:09;6.47;;;4.33;;
6973;SDS011;3527;52.376;8.990;2022-12-18T17:31:59;8.63;;;4.80;;
6973;SDS011;3527;52.376;8.990;2022-12-18T17:34:46;11.40;;;5.40;;
6973;SDS011;3527;52.376;8.990;2022-12-18T17:37:34;9.67;;;5.10;;
6973;SDS011;3527;52.376;8.990;2022-12-18T17:40:22;8.10;;;4.83;;
6973;SDS011;3527;52.376;8.990;2022-12-18T17:43:12;9.10;;;4.90;;
6973;SDS011;3527;52.376;8.990;2022-12-18T17:46:03;7.80;;;4.57;;
6973;SDS011;3527;52.376;8.990;2022-12-18T17:48:54;9.00;;;5.47;;
6973;SDS011;3527;52.376;8.990;2022-12-18T17:51:42;9.20;;;4.93;;
6973;SDS011;3527;52.376;8.990;2022-12-18T17:54:29;8.80;;;5.03;;
6973;SDS011;3527;52.376;8.990;2022-12-18T17:57:16;10.80;;;5.50;;
6973;SDS011;3527;52.376;8.990;2022-12-18T18:00:04;8.27;;;5.10;;
6973;SDS011;3527;52.376;8.990;2022-12-18T18:02:51;8.23;;;4.60;;
6973;SDS011;3527;52.376;8.990;2022-12-18T18:05:39;8.97;;;4.97;;
6973;SDS011;3527;52.376;8.990;2022-12-18T18:08:26;8.97;;;5.60;;
6973;SDS011;3527;52.376;8.990;2022-12-18T18:11:15;7.23;;;5.20;;
6973;SDS011;3527;52.376;8.990;2022-12-18T18:14:22;9.77;;;5.73;;
6973;SDS011;3527;52.376;8.990;2022-12-18T18:17:09;7.63;;;4.87;;
6973;SDS011;3527;52.376;8.990;2022-12-18T18:19:56;13.60;;;6.00;;
6973;SDS011;3527;52.376;8.990;2022-12-18T18:22:43;10.57;;;6.57;;
6973;SDS011;3527;52.376;8.990;2022-12-18T18:25:34;9.97;;;6.20;;
6973;SDS011;3527;52.376;8.990;2022-12-18T18:28:22;11.23;;;6.30;;
6973;SDS011;3527;52.376;8.990;2022-12-18T18:31:10;8.30;;;4.97;;
6973;SDS011;3527;52.376;8.990;2022-12-18T18:33:57;9.23;;;5.37;;
6973;SDS011;3527;52.376;8.990;2022-12-18T18:36:44;9.47;;;5.80;;
6973;SDS011;3527;52.376;8.990;2022-12-18T18:39:32;9.00;;;5.77;;
6973;SDS011;3527;52.376;8.990;2022-12-18T18:42:19;8.93;;;5.33;;
6973;SDS011;3527;52.376;8.990;2022-12-18T18:45:06;12.00;;;5.57;;
6973;SDS011;3527;52.376;8.990;2022-12-18T18:47:53;10.00;;;5.57;;
6973;SDS011;3527;52.376;8.990;2022-12-18T18:50:40;8.70;;;5.87;;
6973;SDS011;3527;52.376;8.990;2022-12-18T18:53:29;9.07;;;5.57;;
6973;SDS011;3527;52.376;8.990;2022-12-18T18:56:18;9.50;;;5.77;;
6973;SDS011;3527;52.376;8.990;2022-12-18T18:59:27;9.77;;;6.03;;
6973;SDS011;3527;52.376;8.990;2022-12-18T19:02:17;12.90;;;6.70;;
6973;SDS011;3527;52.376;8.990;2022-12-18T19:05:05;10.97;;;6.20;;
6973;SDS011;3527;52.376;8.990;2022-12-18T19:07:52;12.23;;;6.33;;
6973;SDS011;3527;52.376;8.990;2022-12-18T19:10:42;12.33;;;6.27;;
6973;SDS011;3527;52.376;8.990;2022-12-18T19:13:30;11.87;;;6.43;;
6973;SDS011;3527;52.376;8.990;2022-12-18T19:16:20;10.30;;;6.37;;
6973;SDS011;3527;52.376;8.990;2022-12-18T19:19:10;9.77;;;6.33;;
6973;SDS011;3527;52.376;8.990;2022-12-18T19:21:57;10.90;;;6.23;;